createdAt,value
2019-04-21T18:42:10.821Z,24.00
2019-04-21T18:44:53.535Z,23.90
2019-04-21T18:47:20.036Z,23.80
2019-04-21T18:49:41.817Z,23.60
2019-04-21T18:52:20.766Z,23.50
2019-04-21T18:55:00.414Z,23.40
2019-04-21T18:57:22.606Z,23.20
2019-04-21T18:59:47.630Z,23.20
2019-04-21T19:02:20.560Z,23.00
2019-04-21T19:04:48.380Z,22.90
2019-04-21T19:07:31.742Z,22.80
2019-04-21T19:13:04.956Z,22.60
2019-04-21T19:15:07.659Z,22.50
2019-04-21T19:20:18.031Z,22.30
2019-04-21T19:22:41.696Z,22.20
2019-04-21T19:25:16.408Z,22.10
2019-04-21T19:27:41.836Z,22.00
2019-04-21T19:30:22.404Z,21.90
2019-04-21T19:32:49.749Z,21.80
2019-04-21T19:35:01.844Z,21.70
2019-04-21T19:37:42.685Z,21.60
2019-04-21T19:40:10.465Z,21.50
2019-04-21T19:42:45.599Z,21.40
2019-04-21T19:45:19.142Z,21.30
2019-04-21T19:47:53.185Z,21.20
2019-04-21T19:50:28.747Z,21.10
2019-04-21T19:52:49.617Z,21.00
2019-04-21T19:55:09.830Z,20.90
2019-04-21T19:57:39.190Z,20.80
2019-04-21T20:00:10.121Z,20.80
2019-04-21T20:02:42.791Z,20.70
2019-04-21T20:05:20.624Z,20.60
2019-04-21T20:08:03.664Z,20.50
2019-04-21T20:10:33.021Z,20.40
2019-04-21T20:13:07.849Z,20.30
2019-04-21T20:15:41.992Z,20.30
2019-04-21T20:18:01.926Z,20.20
2019-04-21T20:20:21.331Z,20.10
2019-04-21T20:22:53.413Z,20.10
2019-04-21T20:25:23.695Z,20.00
2019-04-21T20:28:03.017Z,19.90
2019-04-21T20:30:42.668Z,19.90
2019-04-21T20:33:36.995Z,19.80
2019-04-21T20:35:52.057Z,19.70
2019-04-21T20:38:12.544Z,19.60
2019-04-21T20:40:41.235Z,19.60
2019-04-21T20:43:16.464Z,19.40
2019-04-21T20:45:54.390Z,19.40
2019-04-21T20:48:13.877Z,19.30
2019-04-21T20:50:49.249Z,19.20
2019-04-21T20:53:22.146Z,19.20
2019-04-21T20:55:48.659Z,19.10
2019-04-21T20:58:24.039Z,19.00
2019-04-21T21:01:17.397Z,19.00
2019-04-21T21:03:28.890Z,18.90
2019-04-21T21:05:50.421Z,18.80
2019-04-21T21:08:31.168Z,18.70
2019-04-21T21:10:55.804Z,18.70
2019-04-21T21:13:32.228Z,18.60
2019-04-21T21:16:10.219Z,18.50
2019-04-21T21:21:06.412Z,18.40
2019-04-21T21:23:38.608Z,18.40
2019-04-21T21:26:11.377Z,18.30
2019-04-21T21:28:36.532Z,18.30
2019-04-21T21:31:12.134Z,18.20
2019-04-21T21:33:47.541Z,18.20
2019-04-21T21:36:16.701Z,18.10
2019-04-21T21:38:43.013Z,18.00
2019-04-21T21:41:05.177Z,17.90
2019-04-21T21:43:28.708Z,17.90
2019-04-21T21:46:01.026Z,17.80
2019-04-21T21:48:42.999Z,17.80
2019-04-21T21:51:08.189Z,17.70
2019-04-21T21:53:32.625Z,17.70
2019-04-21T21:56:00.847Z,17.60
2019-04-21T21:58:36.442Z,17.60
2019-04-21T22:01:06.007Z,17.50
2019-04-21T22:03:38.942Z,17.50
2019-04-21T22:06:09.943Z,17.40
2019-04-21T22:08:36.509Z,17.40
2019-04-21T22:11:07.240Z,17.40
2019-04-21T22:13:46.892Z,17.30
2019-04-21T22:16:12.469Z,17.30
2019-04-21T22:19:03.497Z,17.20
2019-04-21T22:21:32.270Z,17.20
2019-04-21T22:23:51.328Z,17.20
2019-04-21T22:26:13.289Z,17.10
2019-04-21T22:28:43.573Z,17.00
2019-04-21T22:31:18.190Z,17.00
2019-04-21T22:33:48.422Z,16.90
2019-04-21T22:36:26.667Z,16.90
2019-04-21T22:39:05.260Z,16.90
2019-04-21T22:41:26.619Z,16.90
2019-04-21T22:43:51.658Z,16.80
2019-04-21T22:46:20.234Z,16.80
2019-04-21T22:48:54.613Z,16.80
2019-04-21T22:51:28.450Z,16.70
2019-04-21T22:53:55.509Z,16.70
2019-04-21T22:56:26.838Z,16.70
2019-04-21T22:58:54.996Z,16.60
2019-04-21T23:01:33.364Z,16.60
2019-04-21T23:04:00.867Z,16.60
2019-04-21T23:06:30.809Z,16.50
2019-04-21T23:08:59.132Z,16.50
2019-04-21T23:11:35.884Z,16.50
2019-04-21T23:14:04.276Z,16.40
2019-04-21T23:16:35.610Z,16.40
2019-04-21T23:19:20.082Z,16.40
2019-04-21T23:21:53.805Z,16.30
2019-04-21T23:24:26.194Z,16.30
2019-04-21T23:26:50.738Z,16.30
2019-04-21T23:29:31.097Z,16.20
2019-04-21T23:31:56.059Z,16.20
2019-04-21T23:34:10.850Z,16.20
2019-04-21T23:36:48.216Z,16.20
2019-04-21T23:39:15.661Z,16.20
2019-04-21T23:41:46.067Z,16.10
2019-04-21T23:44:14.122Z,16.10
2019-04-21T23:46:44.486Z,16.10
2019-04-21T23:49:28.258Z,16.10
2019-04-21T23:51:52.884Z,16.10
2019-04-21T23:54:17.475Z,16.20
2019-04-21T23:56:47.799Z,16.20
2019-04-21T23:59:18.229Z,16.20
